Time;durP1;ratioP1;P1;durP2;ratioP2;P2;SDS_P1;SDS_P2;PMS_P1;PMS_P2;Temp;Humidity;BMP_temperature;BMP_pressure;BME280_temperature;BME280_humidity;BME280_pressure;Samples;Min_cycle;Max_cycle;Signal;HPM_P1;HPM_P2
2022/02/19 00:00:36;;;;;;;4.53;3.63;;;9.90;99.90;;;;;;6328691;22;20173;-93
2022/02/19 00:03:08;;;;;;;3.33;3.03;;;9.90;99.90;;;;;;6330465;22;20174;-92
2022/02/19 00:05:39;;;;;;;4.20;3.27;;;9.80;99.90;;;;;;6326443;22;20174;-88
2022/02/19 00:08:13;;;;;;;4.97;3.60;;;9.70;99.90;;;;;;6330022;22;20189;-94
2022/02/19 00:10:45;;;;;;;3.50;3.20;;;9.70;99.90;;;;;;6303350;22;20174;-92
2022/02/19 00:13:18;;;;;;;6.10;3.50;;;9.50;99.90;;;;;;6327885;22;20302;-93
2022/02/19 00:18:32;;;;;;;4.10;3.70;;;9.30;99.90;;;;;;6313534;22;20221;-93
2022/02/19 00:21:05;;;;;;;6.57;3.63;;;9.30;99.90;;;;;;6284890;22;20194;-90
2022/02/19 00:23:37;;;;;;;5.27;3.83;;;9.30;99.90;;;;;;6333890;22;20163;-93
2022/02/19 00:26:09;;;;;;;4.73;3.60;;;9.20;99.90;;;;;;6319023;22;20174;-93
2022/02/19 00:28:44;;;;;;;4.60;3.77;;;9.20;99.90;;;;;;6321066;22;20174;-92
2022/02/19 00:31:16;;;;;;;6.17;4.10;;;9.10;99.90;;;;;;6321444;22;20588;-93
2022/02/19 00:33:46;;;;;;;4.27;3.43;;;9.20;99.90;;;;;;6315806;22;20190;-95
2022/02/19 00:36:17;;;;;;;4.70;4.20;;;9.10;99.90;;;;;;6320305;22;20155;-92
2022/02/19 00:38:49;;;;;;;6.37;3.93;;;9.00;99.90;;;;;;6323735;22;20166;-93
2022/02/19 00:41:21;;;;;;;5.13;4.20;;;9.00;99.90;;;;;;6323768;22;20170;-94
2022/02/19 00:43:55;;;;;;;4.60;3.90;;;9.00;99.90;;;;;;6330181;22;20170;-93
2022/02/19 00:46:26;;;;;;;5.33;4.10;;;8.90;99.90;;;;;;6316018;22;20167;-93
2022/02/19 00:48:59;;;;;;;4.30;3.90;;;9.00;99.90;;;;;;6288179;22;20173;-92
2022/02/19 00:51:32;;;;;;;4.33;3.93;;;9.00;99.90;;;;;;6316668;22;20166;-93
2022/02/19 00:54:04;;;;;;;5.27;4.00;;;9.00;99.90;;;;;;6315487;22;20187;-94
2022/02/19 00:56:35;;;;;;;4.63;3.60;;;9.10;99.90;;;;;;6316072;22;20200;-93
2022/02/19 00:59:07;;;;;;;4.37;3.53;;;9.10;99.90;;;;;;6314591;22;20175;-93
2022/02/19 01:01:39;;;;;;;4.10;3.70;;;9.10;99.90;;;;;;6321931;22;20166;-93
2022/02/19 01:04:12;;;;;;;5.50;3.90;;;9.00;99.90;;;;;;6329250;22;20174;-92
2022/02/19 01:06:45;;;;;;;4.20;3.80;;;9.00;99.90;;;;;;6332430;22;20166;-95
2022/02/19 01:09:16;;;;;;;5.47;4.30;;;9.00;99.90;;;;;;6302614;22;20182;-94
2022/02/19 01:11:48;;;;;;;4.30;3.77;;;9.00;99.90;;;;;;6326475;22;20193;-93
2022/02/19 01:14:21;;;;;;;4.70;3.50;;;9.00;99.90;;;;;;6328305;22;20215;-95
2022/02/19 01:16:53;;;;;;;6.03;4.17;;;9.00;99.90;;;;;;6300528;22;20177;-93
2022/02/19 01:19:25;;;;;;;4.33;3.90;;;8.90;99.90;;;;;;6323454;22;20169;-94
2022/02/19 01:21:56;;;;;;;5.67;3.97;;;8.90;99.90;;;;;;6327777;22;20190;-93
2022/02/19 01:27:03;;;;;;;3.67;3.23;;;8.80;99.90;;;;;;6319303;22;20640;-93
2022/02/19 01:29:36;;;;;;;3.67;3.10;;;8.80;99.90;;;;;;6325304;22;20178;-94
2022/02/19 01:32:08;;;;;;;4.23;3.13;;;8.70;99.90;;;;;;6324401;22;20684;-93
2022/02/19 01:34:40;;;;;;;3.37;3.00;;;8.70;99.90;;;;;;6300576;22;20190;-93
2022/02/19 01:37:11;;;;;;;4.13;3.40;;;8.70;99.90;;;;;;6319405;22;20170;-93
2022/02/19 01:39:44;;;;;;;5.27;3.30;;;8.60;99.90;;;;;;6320447;22;20178;-93
2022/02/19 01:42:17;;;;;;;4.10;3.40;;;8.60;99.90;;;;;;6313849;22;20193;-93
2022/02/19 01:44:53;;;;;;;5.27;3.50;;;8.50;99.90;;;;;;6327043;22;20173;-93
2022/02/19 01:47:24;;;;;;;3.70;3.10;;;8.40;99.90;;;;;;6327848;22;20154;-92
2022/02/19 01:49:56;;;;;;;3.77;3.23;;;8.40;99.90;;;;;;6321270;22;20174;-93
2022/02/19 01:52:27;;;;;;;4.03;3.10;;;8.30;99.90;;;;;;6318981;22;20174;-93
2022/02/19 01:54:59;;;;;;;4.33;3.20;;;8.20;99.90;;;;;;6316247;22;20233;-94
2022/02/19 01:57:30;;;;;;;3.53;3.13;;;8.10;99.90;;;;;;6316353;22;20167;-93
2022/02/19 02:00:05;;;;;;;3.00;2.63;;;8.10;99.90;;;;;;6315407;22;20239;-93
2022/02/19 02:02:36;;;;;;;6.17;3.37;;;8.00;99.90;;;;;;6316850;22;20181;-94
2022/02/19 02:07:42;;;;;;;4.17;3.77;;;7.90;99.90;;;;;;6337877;22;20206;-93
2022/02/19 02:10:14;;;;;;;4.43;3.30;;;7.80;99.90;;;;;;6325777;22;20174;-93
2022/02/19 02:12:46;;;;;;;4.17;2.83;;;7.70;99.90;;;;;;6327048;22;20163;-93
2022/02/19 02:15:31;;;;;;;4.67;2.93;;;7.70;99.90;;;;;;6323612;22;20190;-93
2022/02/19 02:18:05;;;;;;;2.90;2.60;;;7.60;99.90;;;;;;6325831;22;20177;-93
2022/02/19 02:20:37;;;;;;;3.60;3.30;;;7.50;99.90;;;;;;6327853;22;20253;-92
2022/02/19 02:25:46;;;;;;;4.70;3.27;;;7.30;99.90;;;;;;6333466;22;20192;-92
2022/02/19 02:28:19;;;;;;;3.77;2.77;;;7.30;99.90;;;;;;6327317;22;20174;-94
2022/02/19 02:30:50;;;;;;;4.70;3.27;;;7.20;99.90;;;;;;6307680;22;20178;-94
2022/02/19 02:33:23;;;;;;;4.10;3.40;;;7.20;99.90;;;;;;6334874;22;20192;-93
2022/02/19 02:35:55;;;;;;;5.70;3.40;;;7.20;99.90;;;;;;6335396;22;20170;-93
2022/02/19 02:38:26;;;;;;;4.20;3.23;;;7.20;99.90;;;;;;6332196;22;20196;-93
2022/02/19 02:40:59;;;;;;;3.80;3.43;;;7.20;99.90;;;;;;6327268;22;20176;-93
2022/02/19 02:43:31;;;;;;;4.70;3.87;;;7.20;99.90;;;;;;6328419;22;20176;-93
2022/02/19 02:46:02;;;;;;;3.77;3.30;;;7.20;99.90;;;;;;6299929;22;20178;-93
2022/02/19 02:48:33;;;;;;;3.93;3.07;;;7.20;99.90;;;;;;6329733;22;20181;-91
2022/02/19 02:51:05;;;;;;;4.27;3.10;;;7.10;99.90;;;;;;6313397;22;20242;-93
2022/02/19 02:53:43;;;;;;;3.40;3.10;;;7.10;99.90;;;;;;6323809;22;20210;-94
2022/02/19 02:59:33;;;;;;;3.97;3.33;;;7.10;99.90;;;;;;6329320;22;20189;-92
2022/02/19 03:02:11;;;;;;;4.00;3.60;;;7.10;99.90;;;;;;6323253;22;20183;-92
2022/02/19 03:04:42;;;;;;;4.67;3.97;;;7.00;99.90;;;;;;6312147;22;20620;-93
2022/02/19 03:07:15;;;;;;;4.80;3.63;;;6.90;99.90;;;;;;6312191;22;20167;-93
2022/02/19 03:09:47;;;;;;;4.33;3.60;;;6.90;99.90;;;;;;6320089;22;20163;-93
2022/02/19 03:12:18;;;;;;;6.03;4.00;;;6.80;99.90;;;;;;6323480;22;20174;-94
2022/02/19 03:14:51;;;;;;;7.80;4.00;;;6.60;99.90;;;;;;6311531;22;20200;-94
2022/02/19 03:17:22;;;;;;;5.30;4.10;;;6.60;99.90;;;;;;6313215;22;20242;-92
2022/02/19 03:19:53;;;;;;;3.90;3.50;;;6.40;99.90;;;;;;6332970;22;20170;-94
2022/02/19 03:22:24;;;;;;;3.70;3.23;;;6.40;99.90;;;;;;6333720;22;20206;-92
2022/02/19 03:24:55;;;;;;;6.33;3.63;;;6.30;99.90;;;;;;6333998;22;20186;-92
2022/02/19 03:27:29;;;;;;;3.90;3.33;;;6.30;99.90;;;;;;6307750;22;20185;-92
2022/02/19 03:30:02;;;;;;;6.20;3.50;;;6.20;99.90;;;;;;6334838;22;20186;-92
2022/02/19 03:32:33;;;;;;;5.00;3.63;;;6.20;99.90;;;;;;6335083;22;20170;-92
2022/02/19 03:35:05;;;;;;;9.13;3.87;;;6.20;99.90;;;;;;6328746;22;20202;-92
2022/02/19 03:37:37;;;;;;;4.93;3.90;;;6.10;99.90;;;;;;6325850;22;20194;-93
2022/02/19 03:40:10;;;;;;;6.40;3.43;;;6.10;99.90;;;;;;6326652;22;20184;-92
2022/02/19 03:42:43;;;;;;;4.20;3.40;;;6.10;99.90;;;;;;6299241;22;20170;-92
2022/02/19 03:45:17;;;;;;;3.90;3.50;;;6.10;99.90;;;;;;6326574;22;20218;-93
2022/02/19 03:47:48;;;;;;;6.00;3.40;;;6.00;99.90;;;;;;6325690;22;20180;-92
2022/02/19 03:50:20;;;;;;;5.10;4.23;;;6.00;99.90;;;;;;6301433;22;20218;-94
2022/02/19 03:52:50;;;;;;;9.07;4.70;;;6.00;99.90;;;;;;6324766;22;20169;-93
2022/02/19 03:55:22;;;;;;;5.73;4.80;;;6.00;99.90;;;;;;6324031;22;20200;-93
2022/02/19 03:57:53;;;;;;;6.43;5.27;;;6.00;99.90;;;;;;6286330;22;20188;-93
2022/02/19 04:00:27;;;;;;;6.73;5.40;;;6.00;99.90;;;;;;6318973;22;20167;-92
2022/02/19 04:02:59;;;;;;;6.50;5.43;;;6.00;99.90;;;;;;6313347;22;20169;-93
2022/02/19 04:05:29;;;;;;;6.30;5.37;;;6.00;99.90;;;;;;6316580;22;20167;-93
2022/02/19 04:08:01;;;;;;;6.47;5.27;;;6.00;99.90;;;;;;6287402;22;20247;-93
2022/02/19 04:10:33;;;;;;;5.93;4.73;;;6.00;99.90;;;;;;6328873;22;20177;-93
2022/02/19 04:13:04;;;;;;;6.67;4.70;;;6.10;99.90;;;;;;6306119;22;20179;-94
2022/02/19 04:15:39;;;;;;;6.97;5.23;;;6.10;99.90;;;;;;6327574;22;20216;-93
2022/02/19 04:18:10;;;;;;;5.20;4.47;;;6.20;99.90;;;;;;6328704;22;20204;-91
2022/02/19 04:20:42;;;;;;;7.00;5.27;;;6.20;99.90;;;;;;6322431;22;20177;-92
2022/02/19 04:23:12;;;;;;;6.13;4.77;;;6.20;99.90;;;;;;6325169;22;20170;-91
2022/02/19 04:25:44;;;;;;;6.20;5.30;;;6.20;99.90;;;;;;6314637;22;20186;-94
2022/02/19 04:28:16;;;;;;;8.90;5.50;;;6.20;99.90;;;;;;6314851;22;20198;-93
2022/02/19 04:30:49;;;;;;;6.40;4.93;;;6.30;99.90;;;;;;6315577;22;20166;-93
2022/02/19 04:33:20;;;;;;;6.10;5.40;;;6.30;99.90;;;;;;6321599;22;20500;-92
2022/02/19 04:35:51;;;;;;;6.07;5.00;;;6.30;99.90;;;;;;6327321;22;20208;-94
2022/02/19 04:38:24;;;;;;;11.23;5.03;;;6.40;99.90;;;;;;6277417;22;20157;-93
2022/02/19 04:40:55;;;;;;;4.73;4.27;;;6.40;99.90;;;;;;6328771;22;20174;-94
2022/02/19 04:43:27;;;;;;;4.77;4.27;;;6.40;99.90;;;;;;6328568;22;20190;-93
2022/02/19 04:45:59;;;;;;;5.40;4.43;;;6.50;99.90;;;;;;6331582;22;20218;-92
2022/02/19 04:48:31;;;;;;;5.27;3.90;;;6.50;99.90;;;;;;6336238;22;20159;-89
2022/02/19 04:51:02;;;;;;;5.67;3.87;;;6.50;99.90;;;;;;6322180;22;20198;-93
2022/02/19 04:53:34;;;;;;;5.07;3.60;;;6.60;99.90;;;;;;6332731;22;20166;-93
2022/02/19 04:56:06;;;;;;;4.87;3.90;;;6.60;99.90;;;;;;6324522;22;20198;-93
2022/02/19 04:58:37;;;;;;;4.67;3.73;;;6.70;99.90;;;;;;6325893;22;20169;-92
2022/02/19 05:01:10;;;;;;;4.93;4.13;;;6.80;99.90;;;;;;6329602;22;20166;-92
2022/02/19 05:03:40;;;;;;;4.20;3.80;;;6.80;99.90;;;;;;6324079;22;20170;-91
2022/02/19 05:06:13;;;;;;;5.10;4.10;;;6.90;99.90;;;;;;6303088;22;20550;-93
2022/02/19 05:08:44;;;;;;;5.00;4.23;;;6.90;99.90;;;;;;6315595;22;20179;-92
2022/02/19 05:11:16;;;;;;;8.77;4.93;;;6.90;99.90;;;;;;6328127;22;20193;-93
2022/02/19 05:13:48;;;;;;;7.20;5.40;;;6.90;99.90;;;;;;6330606;22;20185;-92
2022/02/19 05:16:21;;;;;;;9.50;7.43;;;7.00;99.90;;;;;;6329681;22;20560;-93
2022/02/19 05:18:52;;;;;;;10.63;8.30;;;7.00;99.90;;;;;;6329333;22;20178;-93
2022/02/19 05:21:23;;;;;;;11.37;9.37;;;7.00;99.90;;;;;;6322855;22;20174;-93
2022/02/19 05:23:55;;;;;;;13.37;8.60;;;7.00;99.90;;;;;;6317331;22;20210;-92
2022/02/19 05:26:25;;;;;;;12.10;8.70;;;7.00;99.90;;;;;;6316210;22;20174;-93
2022/02/19 05:28:56;;;;;;;10.43;8.20;;;7.00;99.90;;;;;;6320897;22;20204;-94
2022/02/19 05:31:30;;;;;;;12.60;9.40;;;7.10;99.90;;;;;;6327121;22;20180;-93
2022/02/19 05:34:03;;;;;;;12.23;8.60;;;7.10;99.90;;;;;;6304641;22;20162;-94
2022/02/19 05:36:34;;;;;;;12.80;9.93;;;7.10;99.90;;;;;;6306778;22;20232;-92
2022/02/19 05:39:05;;;;;;;11.17;8.80;;;7.10;99.90;;;;;;6326213;22;20600;-94
2022/02/19 05:41:36;;;;;;;11.07;8.57;;;7.10;99.90;;;;;;6318023;22;20178;-91
2022/02/19 05:44:07;;;;;;;13.07;9.53;;;7.00;99.90;;;;;;6315420;22;20621;-93
2022/02/19 05:46:40;;;;;;;15.10;9.73;;;7.00;99.90;;;;;;6314273;22;20182;-94
2022/02/19 05:49:12;;;;;;;11.20;8.53;;;7.10;99.90;;;;;;6314908;22;20177;-93
2022/02/19 05:51:43;;;;;;;12.93;8.17;;;7.10;99.90;;;;;;6313598;22;20182;-94
2022/02/19 05:54:15;;;;;;;10.97;7.73;;;7.10;99.90;;;;;;6287027;22;20185;-92
2022/02/19 05:56:46;;;;;;;8.97;7.67;;;7.10;99.90;;;;;;6315863;22;20198;-93
2022/02/19 05:59:17;;;;;;;9.37;7.20;;;7.10;99.90;;;;;;6316470;22;20219;-93
2022/02/19 06:01:50;;;;;;;13.23;8.23;;;7.10;99.90;;;;;;6316942;22;20185;-93
2022/02/19 06:04:21;;;;;;;10.23;7.63;;;7.10;99.90;;;;;;6316918;22;20163;-93
2022/02/19 06:06:52;;;;;;;10.53;7.67;;;7.10;99.90;;;;;;6315839;22;20167;-93
2022/02/19 06:09:23;;;;;;;9.17;6.97;;;7.10;99.90;;;;;;6316129;22;20200;-93
2022/02/19 06:11:54;;;;;;;8.37;6.60;;;7.10;99.90;;;;;;6315457;22;20190;-93
2022/02/19 06:14:25;;;;;;;9.57;6.93;;;7.10;99.90;;;;;;6314789;22;20167;-93
2022/02/19 06:16:57;;;;;;;9.53;7.30;;;7.10;99.90;;;;;;6312130;22;20224;-94
2022/02/19 06:19:29;;;;;;;9.43;7.37;;;7.10;99.90;;;;;;6314320;22;20163;-93
2022/02/19 06:22:00;;;;;;;10.63;7.50;;;7.10;99.90;;;;;;6317263;22;20179;-93
2022/02/19 06:24:31;;;;;;;9.70;7.60;;;7.10;99.90;;;;;;6316972;22;20187;-90
2022/02/19 06:27:04;;;;;;;10.67;7.00;;;7.10;99.90;;;;;;6315510;22;20173;-92
2022/02/19 06:29:35;;;;;;;9.90;7.50;;;7.10;99.90;;;;;;6319023;22;20169;-93
2022/02/19 06:32:09;;;;;;;11.03;7.60;;;7.10;99.90;;;;;;6319511;22;20172;-92
2022/02/19 06:34:40;;;;;;;13.03;8.37;;;7.10;99.90;;;;;;6313981;22;20479;-91
2022/02/19 06:37:11;;;;;;;12.53;8.67;;;7.00;99.90;;;;;;6315320;22;20209;-92
2022/02/19 06:39:42;;;;;;;15.90;10.07;;;7.00;99.90;;;;;;6313599;22;20185;-92
2022/02/19 06:42:14;;;;;;;13.40;9.20;;;6.90;99.90;;;;;;6312521;22;20194;-91
2022/02/19 06:44:44;;;;;;;14.30;9.73;;;6.90;99.90;;;;;;6316513;22;20492;-91
2022/02/19 06:47:17;;;;;;;14.17;9.30;;;6.90;99.90;;;;;;6314261;22;20170;-92
2022/02/19 06:49:48;;;;;;;13.80;8.90;;;7.00;99.90;;;;;;6313959;22;20182;-93
2022/02/19 06:52:19;;;;;;;18.23;8.83;;;7.00;99.90;;;;;;6312977;22;20215;-92
2022/02/19 06:54:49;;;;;;;11.03;8.33;;;7.00;99.90;;;;;;6313021;22;20506;-92
2022/02/19 06:57:21;;;;;;;11.80;8.33;;;7.00;99.90;;;;;;6313190;22;20206;-93
2022/02/19 06:59:52;;;;;;;10.53;8.10;;;7.00;99.90;;;;;;6317704;22;20174;-93
2022/02/19 07:02:26;;;;;;;9.67;7.43;;;7.00;99.90;;;;;;6317228;22;20200;-94
2022/02/19 07:04:58;;;;;;;9.40;7.33;;;7.10;99.90;;;;;;6333996;22;20174;-93
2022/02/19 07:07:32;;;;;;;9.53;7.07;;;7.10;99.90;;;;;;6330827;22;20154;-93
2022/02/19 07:10:03;;;;;;;8.77;6.17;;;7.10;99.90;;;;;;6330351;22;20490;-92
2022/02/19 07:12:35;;;;;;;7.53;6.10;;;7.20;99.90;;;;;;6320378;22;20166;-93
2022/02/19 07:15:08;;;;;;;8.10;5.97;;;7.20;99.90;;;;;;6297882;22;20557;-93
2022/02/19 07:17:51;;;;;;;9.80;5.70;;;7.10;99.90;;;;;;6325066;22;20208;-94
2022/02/19 07:20:24;;;;;;;7.27;5.80;;;7.20;99.90;;;;;;6326387;22;20184;-90
2022/02/19 07:22:55;;;;;;;7.10;5.27;;;7.20;99.90;;;;;;6314538;22;20177;-92
2022/02/19 07:25:26;;;;;;;7.60;5.83;;;7.20;99.90;;;;;;6314319;22;20185;-91
2022/02/19 07:27:57;;;;;;;6.70;5.20;;;7.20;99.90;;;;;;6313138;22;20235;-93
2022/02/19 07:30:29;;;;;;;6.97;5.77;;;7.20;99.90;;;;;;6315618;22;20181;-91
2022/02/19 07:33:02;;;;;;;8.40;5.93;;;7.20;99.90;;;;;;6314314;22;20171;-93
2022/02/19 07:35:33;;;;;;;7.07;5.90;;;7.10;99.90;;;;;;6314775;22;20177;-93
2022/02/19 07:38:04;;;;;;;7.47;5.53;;;7.10;99.90;;;;;;6314548;22;20208;-93
2022/02/19 07:40:36;;;;;;;9.60;5.57;;;7.10;99.90;;;;;;6289178;22;20166;-93
2022/02/19 07:43:10;;;;;;;6.73;5.97;;;7.00;99.90;;;;;;6313620;22;20214;-93
2022/02/19 07:45:41;;;;;;;10.00;5.77;;;7.00;99.90;;;;;;6314051;22;20174;-93
2022/02/19 07:48:14;;;;;;;7.77;6.07;;;7.10;99.90;;;;;;6314559;22;20174;-92
2022/02/19 07:59:09;;;;;;;7.63;6.20;;;7.00;99.90;;;;;;6317506;22;20291;-93
2022/02/19 08:01:40;;;;;;;10.70;7.57;;;7.00;99.90;;;;;;6315178;22;20589;-94
2022/02/19 08:04:14;;;;;;;8.10;6.77;;;7.00;99.90;;;;;;6314818;22;20167;-93
2022/02/19 08:06:46;;;;;;;9.13;6.80;;;7.00;99.90;;;;;;6313845;22;20199;-93
2022/02/19 08:09:17;;;;;;;8.77;6.87;;;7.00;99.90;;;;;;6315703;22;20167;-93
2022/02/19 08:11:48;;;;;;;8.73;6.10;;;7.00;99.90;;;;;;6331609;22;20193;-91
2022/02/19 08:14:19;;;;;;;7.37;6.37;;;7.00;99.90;;;;;;6333994;22;20170;-93
2022/02/19 08:16:50;;;;;;;6.93;6.20;;;7.00;99.90;;;;;;6328024;22;20194;-93
2022/02/19 08:19:24;;;;;;;8.30;6.07;;;7.00;99.90;;;;;;6293533;22;20178;-92
2022/02/19 08:21:57;;;;;;;7.23;6.30;;;7.10;99.90;;;;;;6292723;22;20184;-93
2022/02/19 08:24:28;;;;;;;8.10;5.80;;;7.10;99.90;;;;;;6315507;22;20485;-93
2022/02/19 08:26:59;;;;;;;6.83;5.53;;;7.10;99.90;;;;;;6315617;22;20166;-94
2022/02/19 08:29:30;;;;;;;8.00;6.37;;;7.10;99.90;;;;;;6314664;22;20178;-93
2022/02/19 08:32:01;;;;;;;9.80;6.37;;;7.10;99.90;;;;;;6314631;22;20177;-94
2022/02/19 08:34:34;;;;;;;7.53;6.60;;;7.00;99.90;;;;;;6314328;22;20178;-92
2022/02/19 08:37:06;;;;;;;8.63;6.37;;;7.00;99.90;;;;;;6315906;22;20194;-93
2022/02/19 08:39:37;;;;;;;8.57;6.30;;;7.10;99.90;;;;;;6288441;22;20193;-93
2022/02/19 08:42:09;;;;;;;8.27;6.53;;;7.00;99.90;;;;;;6314229;22;20190;-94
2022/02/19 08:44:40;;;;;;;7.50;5.97;;;7.00;99.90;;;;;;6289492;22;20170;-93
2022/02/19 08:47:11;;;;;;;7.93;6.43;;;7.10;99.90;;;;;;6314930;22;20182;-93
2022/02/19 08:49:45;;;;;;;6.93;6.23;;;7.10;99.90;;;;;;6314567;22;20182;-92
2022/02/19 08:52:20;;;;;;;8.23;5.50;;;7.10;99.90;;;;;;6318623;22;20204;-93
2022/02/19 08:54:57;;;;;;;7.33;6.13;;;7.00;99.90;;;;;;6269164;22;20182;-94
2022/02/19 08:57:27;;;;;;;7.23;5.57;;;7.00;99.90;;;;;;6313965;22;20201;-92
2022/02/19 08:59:58;;;;;;;7.23;5.53;;;6.90;99.90;;;;;;6316451;22;20159;-92
2022/02/19 09:02:29;;;;;;;5.90;5.10;;;7.00;99.90;;;;;;6313271;22;20166;-92
2022/02/19 09:05:02;;;;;;;6.97;5.47;;;6.90;99.90;;;;;;6313374;22;20194;-93
2022/02/19 09:07:36;;;;;;;5.50;5.00;;;7.00;99.90;;;;;;6312521;22;20511;-93
2022/02/19 09:10:08;;;;;;;5.80;5.20;;;7.00;99.90;;;;;;6325153;22;20473;-94
2022/02/19 09:12:46;;;;;;;6.30;5.33;;;6.90;99.90;;;;;;6321954;22;20155;-90
2022/02/19 09:15:19;;;;;;;5.40;4.67;;;6.90;99.90;;;;;;6314260;22;20167;-92
2022/02/19 09:17:51;;;;;;;6.03;5.20;;;6.90;99.90;;;;;;6318761;22;20201;-93
2022/02/19 09:20:24;;;;;;;7.17;5.30;;;6.90;99.90;;;;;;6334501;22;20169;-93
2022/02/19 09:22:56;;;;;;;5.33;4.57;;;6.90;99.90;;;;;;6335283;22;20159;-92
2022/02/19 09:28:02;;;;;;;5.57;4.90;;;6.90;99.90;;;;;;6325297;22;20183;-93
2022/02/19 09:30:33;;;;;;;5.60;5.10;;;6.90;99.90;;;;;;6315647;22;20210;-92
2022/02/19 09:33:04;;;;;;;5.27;4.77;;;6.90;99.90;;;;;;6288164;22;20267;-93
2022/02/19 09:35:38;;;;;;;5.50;4.00;;;6.80;99.90;;;;;;6313012;22;20233;-93
2022/02/19 09:38:09;;;;;;;5.80;5.00;;;6.80;99.90;;;;;;6326716;22;20209;-94
2022/02/19 09:40:42;;;;;;;6.80;4.60;;;6.90;99.90;;;;;;6292979;22;20176;-93
2022/02/19 09:43:13;;;;;;;6.23;4.73;;;6.80;99.90;;;;;;6330745;22;20173;-93
2022/02/19 09:45:44;;;;;;;5.10;4.60;;;6.80;99.90;;;;;;6324391;22;20230;-94
2022/02/19 09:48:19;;;;;;;6.33;4.90;;;6.80;99.90;;;;;;6330920;22;20189;-93
2022/02/19 09:50:54;;;;;;;7.37;5.20;;;6.70;99.90;;;;;;6330485;22;20162;-93
2022/02/19 09:53:25;;;;;;;7.90;5.50;;;6.70;99.90;;;;;;6316435;22;20175;-93
2022/02/19 09:55:57;;;;;;;6.20;5.30;;;6.80;99.90;;;;;;6314816;22;20196;-92
2022/02/19 09:58:28;;;;;;;5.53;4.97;;;6.80;99.90;;;;;;6323736;22;20229;-93
2022/02/19 10:01:17;;;;;;;6.00;4.90;;;6.70;99.90;;;;;;6314577;22;20196;-93
2022/02/19 10:03:49;;;;;;;5.67;4.87;;;6.70;99.90;;;;;;6313807;22;20215;-93
2022/02/19 10:06:21;;;;;;;5.67;4.80;;;6.70;99.90;;;;;;6312893;22;20178;-93
2022/02/19 10:09:10;;;;;;;5.90;4.60;;;6.70;99.90;;;;;;6311886;22;20167;-92
2022/02/19 10:11:42;;;;;;;5.00;4.47;;;6.70;99.90;;;;;;6312828;22;20177;-93
2022/02/19 10:14:24;;;;;;;5.60;4.80;;;6.60;99.90;;;;;;6312130;22;20176;-93
2022/02/19 10:17:11;;;;;;;5.90;4.40;;;6.70;99.90;;;;;;6314746;22;20166;-93
2022/02/19 10:19:49;;;;;;;6.10;4.77;;;6.60;99.90;;;;;;6332465;22;20157;-92
2022/02/19 10:22:24;;;;;;;6.80;4.57;;;6.60;99.90;;;;;;6333100;22;20186;-94
2022/02/19 10:24:58;;;;;;;5.00;4.40;;;6.60;99.90;;;;;;6333528;22;20169;-92
2022/02/19 10:27:42;;;;;;;6.20;4.27;;;6.70;99.90;;;;;;6332156;22;20201;-91
2022/02/19 10:30:13;;;;;;;5.00;4.40;;;6.70;99.90;;;;;;6332938;22;20175;-90
2022/02/19 10:32:56;;;;;;;5.33;4.30;;;6.70;99.90;;;;;;6328849;22;20632;-92
2022/02/19 10:35:43;;;;;;;5.60;4.63;;;6.70;99.90;;;;;;6292799;22;20287;-93
2022/02/19 10:38:17;;;;;;;5.30;4.80;;;6.70;99.90;;;;;;6311773;22;20390;-94
2022/02/19 10:40:50;;;;;;;5.53;4.80;;;6.70;99.90;;;;;;6311909;22;20627;-92
2022/02/19 10:43:23;;;;;;;6.33;5.00;;;6.70;99.90;;;;;;6311720;22;20223;-92
2022/02/19 10:45:59;;;;;;;5.83;5.00;;;6.70;99.90;;;;;;6311806;22;20163;-92
2022/02/19 10:48:32;;;;;;;8.23;4.87;;;6.70;99.90;;;;;;6310461;22;20174;-92
2022/02/19 10:51:11;;;;;;;7.33;4.97;;;6.60;99.90;;;;;;6311488;22;20264;-92
2022/02/19 10:53:48;;;;;;;7.13;5.47;;;6.60;99.90;;;;;;6312683;22;20197;-93
2022/02/19 10:56:21;;;;;;;6.17;5.03;;;6.60;99.90;;;;;;6312952;22;20177;-92
2022/02/19 10:59:01;;;;;;;5.23;4.73;;;6.60;99.90;;;;;;6312465;22;20209;-93
2022/02/19 11:01:41;;;;;;;6.50;4.87;;;6.60;99.90;;;;;;6313129;22;20205;-93
2022/02/19 11:04:14;;;;;;;6.40;4.67;;;6.50;99.90;;;;;;6314182;22;20162;-93
2022/02/19 11:06:46;;;;;;;5.43;4.83;;;6.60;99.90;;;;;;6312253;22;20174;-93
2022/02/19 11:09:19;;;;;;;5.23;4.23;;;6.60;99.90;;;;;;6286025;22;20166;-93
2022/02/19 11:11:50;;;;;;;5.83;5.23;;;6.60;99.90;;;;;;6311523;22;20198;-91
2022/02/19 11:14:21;;;;;;;6.67;5.03;;;6.60;99.90;;;;;;6311793;22;20186;-94
2022/02/19 11:16:55;;;;;;;7.37;5.37;;;6.50;99.90;;;;;;6310398;22;20217;-93
2022/02/19 11:19:26;;;;;;;7.50;5.77;;;6.50;99.90;;;;;;6311843;22;20243;-93
2022/02/19 11:21:58;;;;;;;8.20;5.80;;;6.50;99.90;;;;;;6311214;22;20171;-92
2022/02/19 11:24:31;;;;;;;6.40;4.93;;;6.50;99.90;;;;;;6322153;22;20204;-93
2022/02/19 11:27:04;;;;;;;6.93;5.27;;;6.50;99.90;;;;;;6323065;22;20178;-93
2022/02/19 11:29:36;;;;;;;6.23;5.33;;;6.60;99.90;;;;;;6312311;22;20623;-92
2022/02/19 11:32:16;;;;;;;6.93;5.63;;;6.60;99.90;;;;;;6325179;22;20169;-93
2022/02/19 11:34:51;;;;;;;8.43;6.63;;;6.60;99.90;;;;;;6333487;22;20197;-91
2022/02/19 11:37:24;;;;;;;8.57;6.37;;;6.60;99.90;;;;;;6333055;22;20162;-93
2022/02/19 11:40:19;;;;;;;8.33;6.43;;;6.60;99.90;;;;;;6296691;22;20194;-92
2022/02/19 11:42:51;;;;;;;7.73;6.70;;;6.60;99.90;;;;;;6313843;22;20177;-91
2022/02/19 11:45:28;;;;;;;7.20;6.30;;;6.60;99.90;;;;;;6312608;22;20224;-92
2022/02/19 11:48:29;;;;;;;10.07;7.17;;;6.60;99.90;;;;;;6311447;22;20167;-93
2022/02/19 11:51:18;;;;;;;11.13;6.87;;;6.60;99.90;;;;;;6311733;22;20174;-94
2022/02/19 11:53:50;;;;;;;8.43;6.37;;;6.60;99.90;;;;;;6311802;22;20216;-93
2022/02/19 11:56:32;;;;;;;8.63;6.77;;;6.60;99.90;;;;;;6312210;22;20584;-93
2022/02/19 11:59:04;;;;;;;7.87;6.70;;;6.60;99.90;;;;;;6311683;22;20617;-92
2022/02/19 12:01:36;;;;;;;9.40;7.30;;;6.60;99.90;;;;;;6311306;22;20220;-92
2022/02/19 12:04:19;;;;;;;8.17;6.47;;;6.60;99.90;;;;;;6313832;22;20172;-94
2022/02/19 12:07:14;;;;;;;8.03;6.67;;;6.60;99.90;;;;;;6309792;22;20162;-92
2022/02/19 12:10:03;;;;;;;8.33;6.63;;;6.50;99.90;;;;;;6315561;22;20179;-92
2022/02/19 12:13:09;;;;;;;7.93;6.57;;;6.50;99.90;;;;;;6311303;22;20573;-93
2022/02/19 12:15:43;;;;;;;8.10;7.30;;;6.50;99.90;;;;;;6303655;22;20210;-93
2022/02/19 12:18:14;;;;;;;9.23;7.07;;;6.50;99.90;;;;;;6311436;22;20252;-93
2022/02/19 12:20:45;;;;;;;9.17;6.60;;;6.40;99.90;;;;;;6311458;22;20174;-93
2022/02/19 12:23:18;;;;;;;9.27;7.00;;;6.40;99.90;;;;;;6312305;22;20177;-93
2022/02/19 12:26:03;;;;;;;8.03;6.97;;;6.50;99.90;;;;;;6311902;22;20178;-93
2022/02/19 12:28:42;;;;;;;8.90;6.63;;;6.50;99.90;;;;;;6310654;22;20186;-93
2022/02/19 12:31:20;;;;;;;8.07;6.57;;;6.50;99.90;;;;;;6314144;22;20177;-92
2022/02/19 12:33:53;;;;;;;7.93;6.63;;;6.50;99.90;;;;;;6314459;22;20495;-92
2022/02/19 12:36:24;;;;;;;7.63;6.50;;;6.50;99.90;;;;;;6313561;22;20236;-93
2022/02/19 12:38:57;;;;;;;8.37;6.87;;;6.50;99.90;;;;;;6317387;22;20202;-93
2022/02/19 12:41:28;;;;;;;9.47;6.93;;;6.50;99.90;;;;;;6313853;22;20198;-94
2022/02/19 12:44:13;;;;;;;8.10;6.97;;;6.40;99.90;;;;;;6317146;22;20215;-93
2022/02/19 12:46:47;;;;;;;9.27;7.27;;;6.40;99.90;;;;;;6313920;22;20162;-93
2022/02/19 12:49:19;;;;;;;10.40;7.53;;;6.40;99.90;;;;;;6325093;22;20200;-93
2022/02/19 12:51:56;;;;;;;8.47;7.40;;;6.30;99.90;;;;;;6335429;22;20170;-93
2022/02/19 12:54:38;;;;;;;9.63;7.70;;;6.30;99.90;;;;;;6335520;22;20177;-93
2022/02/19 12:57:10;;;;;;;10.23;8.27;;;6.20;99.90;;;;;;6334932;22;20179;-93
2022/02/19 12:59:43;;;;;;;9.30;8.07;;;6.20;99.90;;;;;;6335891;22;20200;-92
2022/02/19 13:02:21;;;;;;;8.93;7.63;;;6.20;99.90;;;;;;6309681;22;20167;-89
2022/02/19 13:04:59;;;;;;;9.63;7.47;;;6.20;99.90;;;;;;6309421;22;20233;-93
2022/02/19 13:07:31;;;;;;;9.17;7.83;;;6.20;99.90;;;;;;6334577;22;20165;-93
2022/02/19 13:12:32;;;;;;;10.20;8.60;;;6.10;99.90;;;;;;6329590;22;20200;-94
2022/02/19 13:15:04;;;;;;;10.33;7.73;;;6.20;99.90;;;;;;6329471;22;20174;-93
2022/02/19 13:17:37;;;;;;;11.40;7.93;;;6.30;99.90;;;;;;6329033;22;20189;-93
2022/02/19 13:20:14;;;;;;;10.57;8.50;;;6.30;99.90;;;;;;6329458;22;20178;-93
2022/02/19 13:22:49;;;;;;;10.17;8.00;;;6.30;99.90;;;;;;6329387;22;20177;-93
2022/02/19 13:25:24;;;;;;;11.00;8.23;;;6.30;99.90;;;;;;6330327;22;20178;-93
2022/02/19 13:27:56;;;;;;;10.13;7.93;;;6.30;99.90;;;;;;6328498;22;20183;-92
2022/02/19 13:30:27;;;;;;;8.93;7.13;;;6.30;99.90;;;;;;6327835;22;20171;-93
2022/02/19 13:33:01;;;;;;;10.37;7.73;;;6.30;99.90;;;;;;6328589;22;20155;-93
2022/02/19 13:35:34;;;;;;;12.57;7.60;;;6.40;99.90;;;;;;6326828;22;20178;-92
2022/02/19 13:38:06;;;;;;;8.57;7.40;;;6.40;99.90;;;;;;6328668;22;20176;-93
2022/02/19 13:40:37;;;;;;;8.97;7.63;;;6.40;99.90;;;;;;6327857;22;20202;-93
2022/02/19 13:43:15;;;;;;;10.27;7.97;;;6.40;99.90;;;;;;6327660;22;20176;-93
2022/02/19 13:45:48;;;;;;;10.30;7.73;;;6.40;99.90;;;;;;6329156;22;20185;-94
2022/02/19 13:48:24;;;;;;;9.13;6.80;;;6.40;99.90;;;;;;6334259;22;20165;-92
2022/02/19 13:50:56;;;;;;;6.93;5.87;;;6.30;99.90;;;;;;6330361;22;20241;-93
2022/02/19 13:53:29;;;;;;;6.40;5.30;;;6.10;99.90;;;;;;6320998;22;20170;-94